logo
Rechercher aéroport 
image banner adimage banner adimage banner ad
image banner ad

YJCO - Jericho (Tas)

Situé à Jericho, Australia

ICAO - YJCO, IATA -

Données fournies par Airmate  

Information générale

Coordonnées: S42°22'5" E147°20'11"
Élévation : 1402 feet MSL.
Variation magnétique : 15° East
Voir autres Aéroports à Tasmania

Données opérationnelles

Special qualification required
Heure actuelle UTC:
Heure actuelle locale:
Météo à : YMHB - Hobart ( 54 km )
METAR: YMHB 242000Z 35006KT CAVOK 07/05 Q1014 OVC170
TAF: TAF YMHB 241705Z 2418/2518 34008KT CAVOK
Voir NOTAMs / SUP AIP / TFR affectant cet aéroport [VIEW]
Fréquences de communication: [VIEW]

Pistes:

Identifiant RWYQFULongueur (ft)Largeur (ft)SurfaceLDA (ft)
0130°218054GRAS
19210°218054GRAS

Coordonnées de l'aéroport

Adresse: Jericho Australia

Vue satellite de YJCO